sensor_id;sensor_type;location;lat;lon;timestamp;temperature;humidity
2997;DHT22;1508;48.744;9.110;2023-04-15T00:02:17;3.80;99.90
2997;DHT22;1508;48.744;9.110;2023-04-15T00:05:04;3.80;99.90
2997;DHT22;1508;48.744;9.110;2023-04-15T00:07:49;3.90;99.90
2997;DHT22;1508;48.744;9.110;2023-04-15T00:10:35;3.80;99.90
2997;DHT22;1508;48.744;9.110;2023-04-15T00:13:21;3.80;99.90
2997;DHT22;1508;48.744;9.110;2023-04-15T00:16:07;3.80;99.90
2997;DHT22;1508;48.744;9.110;2023-04-15T00:18:52;3.80;99.90
2997;DHT22;1508;48.744;9.110;2023-04-15T00:21:38;3.70;99.90
2997;DHT22;1508;48.744;9.110;2023-04-15T00:24:24;3.60;99.90
2997;DHT22;1508;48.744;9.110;2023-04-15T00:27:10;3.60;99.90
2997;DHT22;1508;48.744;9.110;2023-04-15T00:29:55;3.50;99.90
2997;DHT22;1508;48.744;9.110;2023-04-15T00:32:41;3.50;99.90
2997;DHT22;1508;48.744;9.110;2023-04-15T00:35:27;3.50;99.90
2997;DHT22;1508;48.744;9.110;2023-04-15T00:38:13;3.60;99.90
2997;DHT22;1508;48.744;9.110;2023-04-15T00:40:58;3.50;99.90
2997;DHT22;1508;48.744;9.110;2023-04-15T00:43:44;3.50;99.90
2997;DHT22;1508;48.744;9.110;2023-04-15T00:46:30;3.60;99.90
2997;DHT22;1508;48.744;9.110;2023-04-15T00:49:16;3.50;99.90
2997;DHT22;1508;48.744;9.110;2023-04-15T00:52:02;3.50;99.90
2997;DHT22;1508;48.744;9.110;2023-04-15T00:54:47;3.50;99.90
2997;DHT22;1508;48.744;9.110;2023-04-15T00:57:34;3.40;99.90
2997;DHT22;1508;48.744;9.110;2023-04-15T01:00:20;3.40;99.90
2997;DHT22;1508;48.744;9.110;2023-04-15T01:03:06;3.40;99.90
2997;DHT22;1508;48.744;9.110;2023-04-15T01:05:51;3.40;99.90
2997;DHT22;1508;48.744;9.110;2023-04-15T01:08:37;3.30;99.90
2997;DHT22;1508;48.744;9.110;2023-04-15T01:11:23;3.40;99.90
2997;DHT22;1508;48.744;9.110;2023-04-15T01:14:09;3.40;99.90
2997;DHT22;1508;48.744;9.110;2023-04-15T01:16:55;3.30;99.90
2997;DHT22;1508;48.744;9.110;2023-04-15T01:19:41;3.20;99.90
2997;DHT22;1508;48.744;9.110;2023-04-15T01:22:27;3.20;99.90
2997;DHT22;1508;48.744;9.110;2023-04-15T01:25:15;3.20;99.90
2997;DHT22;1508;48.744;9.110;2023-04-15T01:28:02;3.10;99.90
2997;DHT22;1508;48.744;9.110;2023-04-15T01:30:47;3.20;99.90
2997;DHT22;1508;48.744;9.110;2023-04-15T01:33:33;3.10;99.90
2997;DHT22;1508;48.744;9.110;2023-04-15T01:36:19;3.20;99.90
2997;DHT22;1508;48.744;9.110;2023-04-15T01:39:05;3.20;99.90
2997;DHT22;1508;48.744;9.110;2023-04-15T01:41:50;3.10;99.90
2997;DHT22;1508;48.744;9.110;2023-04-15T01:44:36;3.10;99.90
2997;DHT22;1508;48.744;9.110;2023-04-15T01:47:22;3.10;99.90
2997;DHT22;1508;48.744;9.110;2023-04-15T01:50:08;3.00;99.90
2997;DHT22;1508;48.744;9.110;2023-04-15T01:52:54;3.00;99.90
2997;DHT22;1508;48.744;9.110;2023-04-15T01:55:39;3.00;99.90
2997;DHT22;1508;48.744;9.110;2023-04-15T01:58:25;2.90;99.90
2997;DHT22;1508;48.744;9.110;2023-04-15T02:01:11;2.90;99.90
2997;DHT22;1508;48.744;9.110;2023-04-15T02:03:57;2.90;99.90
2997;DHT22;1508;48.744;9.110;2023-04-15T02:06:42;2.90;99.90
2997;DHT22;1508;48.744;9.110;2023-04-15T02:09:28;2.80;99.90
2997;DHT22;1508;48.744;9.110;2023-04-15T02:12:14;2.90;99.90
2997;DHT22;1508;48.744;9.110;2023-04-15T02:15:00;2.80;99.90
2997;DHT22;1508;48.744;9.110;2023-04-15T02:17:45;2.80;99.90
2997;DHT22;1508;48.744;9.110;2023-04-15T02:20:31;2.80;99.90
2997;DHT22;1508;48.744;9.110;2023-04-15T02:23:17;2.70;99.90
2997;DHT22;1508;48.744;9.110;2023-04-15T02:26:02;2.70;99.90
2997;DHT22;1508;48.744;9.110;2023-04-15T02:28:48;2.70;99.90
2997;DHT22;1508;48.744;9.110;2023-04-15T02:31:34;2.70;99.90
2997;DHT22;1508;48.744;9.110;2023-04-15T02:34:20;2.70;99.90
2997;DHT22;1508;48.744;9.110;2023-04-15T02:37:06;2.60;99.90
2997;DHT22;1508;48.744;9.110;2023-04-15T02:39:51;2.60;99.90
2997;DHT22;1508;48.744;9.110;2023-04-15T02:42:38;2.60;99.90
2997;DHT22;1508;48.744;9.110;2023-04-15T02:45:23;2.60;99.90
2997;DHT22;1508;48.744;9.110;2023-04-15T02:48:09;2.70;99.90
2997;DHT22;1508;48.744;9.110;2023-04-15T02:51:09;2.70;99.90
2997;DHT22;1508;48.744;9.110;2023-04-15T02:53:55;2.60;99.90
2997;DHT22;1508;48.744;9.110;2023-04-15T02:56:41;2.70;99.90
2997;DHT22;1508;48.744;9.110;2023-04-15T02:59:26;2.70;99.90
2997;DHT22;1508;48.744;9.110;2023-04-15T03:02:12;2.70;99.90
2997;DHT22;1508;48.744;9.110;2023-04-15T03:04:58;2.80;99.90
2997;DHT22;1508;48.744;9.110;2023-04-15T03:07:44;2.80;99.90
2997;DHT22;1508;48.744;9.110;2023-04-15T03:10:29;2.80;99.90
2997;DHT22;1508;48.744;9.110;2023-04-15T03:13:15;2.90;99.90
2997;DHT22;1508;48.744;9.110;2023-04-15T03:16:01;2.90;99.90
2997;DHT22;1508;48.744;9.110;2023-04-15T03:18:46;3.00;99.90
2997;DHT22;1508;48.744;9.110;2023-04-15T03:21:32;3.00;99.90
2997;DHT22;1508;48.744;9.110;2023-04-15T03:24:19;3.00;99.90
2997;DHT22;1508;48.744;9.110;2023-04-15T03:27:04;3.10;99.90
2997;DHT22;1508;48.744;9.110;2023-04-15T03:29:50;3.10;99.90
2997;DHT22;1508;48.744;9.110;2023-04-15T03:32:36;3.20;99.90
2997;DHT22;1508;48.744;9.110;2023-04-15T03:35:21;3.30;99.90
2997;DHT22;1508;48.744;9.110;2023-04-15T03:38:07;3.30;99.90
2997;DHT22;1508;48.744;9.110;2023-04-15T03:40:53;3.40;99.90
2997;DHT22;1508;48.744;9.110;2023-04-15T03:43:39;3.60;99.90
2997;DHT22;1508;48.744;9.110;2023-04-15T03:46:24;3.70;99.90
2997;DHT22;1508;48.744;9.110;2023-04-15T03:49:10;3.70;99.90
2997;DHT22;1508;48.744;9.110;2023-04-15T03:51:56;3.80;99.90
2997;DHT22;1508;48.744;9.110;2023-04-15T03:54:41;3.90;99.90
2997;DHT22;1508;48.744;9.110;2023-04-15T03:57:27;3.90;99.90
2997;DHT22;1508;48.744;9.110;2023-04-15T04:00:13;3.90;99.90
2997;DHT22;1508;48.744;9.110;2023-04-15T04:02:59;3.90;99.90
2997;DHT22;1508;48.744;9.110;2023-04-15T04:05:45;3.90;99.90
2997;DHT22;1508;48.744;9.110;2023-04-15T04:08:30;4.00;99.90
2997;DHT22;1508;48.744;9.110;2023-04-15T04:11:16;4.00;99.90
2997;DHT22;1508;48.744;9.110;2023-04-15T04:14:02;4.10;99.90
2997;DHT22;1508;48.744;9.110;2023-04-15T04:16:48;4.20;99.90
2997;DHT22;1508;48.744;9.110;2023-04-15T04:19:34;4.20;99.90
2997;DHT22;1508;48.744;9.110;2023-04-15T04:22:23;4.20;99.90
2997;DHT22;1508;48.744;9.110;2023-04-15T04:25:08;4.20;99.90
2997;DHT22;1508;48.744;9.110;2023-04-15T04:27:54;4.20;99.90
2997;DHT22;1508;48.744;9.110;2023-04-15T04:30:40;4.20;99.90
2997;DHT22;1508;48.744;9.110;2023-04-15T04:33:26;4.20;99.90
2997;DHT22;1508;48.744;9.110;2023-04-15T04:36:11;4.20;99.90
2997;DHT22;1508;48.744;9.110;2023-04-15T04:38:57;4.30;99.90
2997;DHT22;1508;48.744;9.110;2023-04-15T04:41:43;4.30;99.90
2997;DHT22;1508;48.744;9.110;2023-04-15T04:44:29;4.20;99.90
2997;DHT22;1508;48.744;9.110;2023-04-15T04:47:14;4.20;99.90
2997;DHT22;1508;48.744;9.110;2023-04-15T04:50:00;4.20;99.90
2997;DHT22;1508;48.744;9.110;2023-04-15T04:52:46;4.20;99.90
2997;DHT22;1508;48.744;9.110;2023-04-15T04:55:32;4.30;99.90
2997;DHT22;1508;48.744;9.110;2023-04-15T04:58:17;4.20;99.90
2997;DHT22;1508;48.744;9.110;2023-04-15T05:01:03;4.20;99.90
2997;DHT22;1508;48.744;9.110;2023-04-15T05:03:49;4.20;99.90
2997;DHT22;1508;48.744;9.110;2023-04-15T05:06:34;4.10;99.90
2997;DHT22;1508;48.744;9.110;2023-04-15T05:09:20;3.90;99.90
2997;DHT22;1508;48.744;9.110;2023-04-15T05:12:06;3.90;99.90
2997;DHT22;1508;48.744;9.110;2023-04-15T05:14:52;3.90;99.90
2997;DHT22;1508;48.744;9.110;2023-04-15T05:17:37;3.90;99.90
2997;DHT22;1508;48.744;9.110;2023-04-15T05:20:23;4.10;99.90
2997;DHT22;1508;48.744;9.110;2023-04-15T05:23:09;4.20;99.90
2997;DHT22;1508;48.744;9.110;2023-04-15T05:25:55;4.30;99.90
2997;DHT22;1508;48.744;9.110;2023-04-15T05:28:40;4.50;99.90
2997;DHT22;1508;48.744;9.110;2023-04-15T05:31:26;4.80;99.90
2997;DHT22;1508;48.744;9.110;2023-04-15T05:34:12;5.20;99.90
2997;DHT22;1508;48.744;9.110;2023-04-15T05:36:57;5.80;99.90
2997;DHT22;1508;48.744;9.110;2023-04-15T05:39:43;6.30;99.90
2997;DHT22;1508;48.744;9.110;2023-04-15T05:42:29;7.00;99.90
2997;DHT22;1508;48.744;9.110;2023-04-15T05:45:15;8.00;99.90
2997;DHT22;1508;48.744;9.110;2023-04-15T05:48:00;8.90;99.90
2997;DHT22;1508;48.744;9.110;2023-04-15T05:50:46;9.80;99.90
2997;DHT22;1508;48.744;9.110;2023-04-15T05:53:32;10.20;99.90
2997;DHT22;1508;48.744;9.110;2023-04-15T05:56:17;9.90;99.90
2997;DHT22;1508;48.744;9.110;2023-04-15T05:59:03;9.60;99.90
2997;DHT22;1508;48.744;9.110;2023-04-15T06:01:49;9.50;99.90
2997;DHT22;1508;48.744;9.110;2023-04-15T06:04:35;9.50;99.90
2997;DHT22;1508;48.744;9.110;2023-04-15T06:07:20;9.50;99.90
2997;DHT22;1508;48.744;9.110;2023-04-15T06:10:06;9.40;99.90
2997;DHT22;1508;48.744;9.110;2023-04-15T06:12:52;9.20;99.90
2997;DHT22;1508;48.744;9.110;2023-04-15T06:15:38;8.80;99.90
2997;DHT22;1508;48.744;9.110;2023-04-15T06:18:24;8.20;99.90
2997;DHT22;1508;48.744;9.110;2023-04-15T06:21:09;7.90;99.90
2997;DHT22;1508;48.744;9.110;2023-04-15T06:23:55;7.70;99.90
2997;DHT22;1508;48.744;9.110;2023-04-15T06:26:41;7.70;99.90
2997;DHT22;1508;48.744;9.110;2023-04-15T06:29:27;7.90;99.90
2997;DHT22;1508;48.744;9.110;2023-04-15T06:32:12;8.10;99.90
2997;DHT22;1508;48.744;9.110;2023-04-15T06:34:58;8.30;99.90
2997;DHT22;1508;48.744;9.110;2023-04-15T06:37:44;8.40;99.90
2997;DHT22;1508;48.744;9.110;2023-04-15T06:40:30;8.60;99.90
2997;DHT22;1508;48.744;9.110;2023-04-15T06:43:15;9.00;99.90
2997;DHT22;1508;48.744;9.110;2023-04-15T06:46:01;9.20;99.90
2997;DHT22;1508;48.744;9.110;2023-04-15T06:48:47;9.30;99.90
2997;DHT22;1508;48.744;9.110;2023-04-15T06:51:33;9.30;99.90
2997;DHT22;1508;48.744;9.110;2023-04-15T06:54:19;9.40;99.90
2997;DHT22;1508;48.744;9.110;2023-04-15T06:57:05;9.20;99.90
2997;DHT22;1508;48.744;9.110;2023-04-15T06:59:50;9.40;99.90
2997;DHT22;1508;48.744;9.110;2023-04-15T07:02:36;9.30;99.90
2997;DHT22;1508;48.744;9.110;2023-04-15T07:05:22;9.10;99.90
2997;DHT22;1508;48.744;9.110;2023-04-15T07:08:08;9.20;99.90
2997;DHT22;1508;48.744;9.110;2023-04-15T07:10:53;9.60;99.90
2997;DHT22;1508;48.744;9.110;2023-04-15T07:13:39;9.90;99.90
2997;DHT22;1508;48.744;9.110;2023-04-15T07:16:25;10.10;99.90
2997;DHT22;1508;48.744;9.110;2023-04-15T07:19:11;10.00;99.90
2997;DHT22;1508;48.744;9.110;2023-04-15T07:21:56;9.90;99.90
2997;DHT22;1508;48.744;9.110;2023-04-15T07:24:42;10.00;99.90
2997;DHT22;1508;48.744;9.110;2023-04-15T07:27:28;10.00;99.90
2997;DHT22;1508;48.744;9.110;2023-04-15T07:30:13;10.20;99.90
2997;DHT22;1508;48.744;9.110;2023-04-15T07:33:00;10.60;99.90
2997;DHT22;1508;48.744;9.110;2023-04-15T07:35:46;10.90;99.90
2997;DHT22;1508;48.744;9.110;2023-04-15T07:38:31;11.20;99.90
2997;DHT22;1508;48.744;9.110;2023-04-15T07:41:17;11.20;99.90
2997;DHT22;1508;48.744;9.110;2023-04-15T07:44:03;11.40;99.90
2997;DHT22;1508;48.744;9.110;2023-04-15T07:46:49;11.80;99.90
2997;DHT22;1508;48.744;9.110;2023-04-15T07:49:34;11.60;99.90
2997;DHT22;1508;48.744;9.110;2023-04-15T07:52:20;11.70;99.90
2997;DHT22;1508;48.744;9.110;2023-04-15T07:55:06;11.90;99.90
2997;DHT22;1508;48.744;9.110;2023-04-15T07:57:52;11.90;99.90
2997;DHT22;1508;48.744;9.110;2023-04-15T08:00:38;12.20;99.90
2997;DHT22;1508;48.744;9.110;2023-04-15T08:03:23;12.60;99.90
2997;DHT22;1508;48.744;9.110;2023-04-15T08:06:09;12.80;99.90
2997;DHT22;1508;48.744;9.110;2023-04-15T08:08:55;12.40;99.90
2997;DHT22;1508;48.744;9.110;2023-04-15T08:11:41;11.90;99.90
2997;DHT22;1508;48.744;9.110;2023-04-15T08:14:27;11.70;99.90
2997;DHT22;1508;48.744;9.110;2023-04-15T08:17:13;11.80;99.90
2997;DHT22;1508;48.744;9.110;2023-04-15T08:19:59;11.60;99.90
2997;DHT22;1508;48.744;9.110;2023-04-15T08:22:45;11.50;99.90
2997;DHT22;1508;48.744;9.110;2023-04-15T08:25:30;11.70;99.90
2997;DHT22;1508;48.744;9.110;2023-04-15T08:28:16;11.80;99.90
2997;DHT22;1508;48.744;9.110;2023-04-15T08:31:02;11.90;99.90
2997;DHT22;1508;48.744;9.110;2023-04-15T08:33:48;12.00;99.90
2997;DHT22;1508;48.744;9.110;2023-04-15T08:36:33;12.10;99.90
2997;DHT22;1508;48.744;9.110;2023-04-15T08:39:19;12.30;99.90
2997;DHT22;1508;48.744;9.110;2023-04-15T08:42:07;12.00;99.90
2997;DHT22;1508;48.744;9.110;2023-04-15T08:44:55;12.00;99.90
2997;DHT22;1508;48.744;9.110;2023-04-15T08:47:41;12.50;99.90
2997;DHT22;1508;48.744;9.110;2023-04-15T08:50:27;12.40;99.90
2997;DHT22;1508;48.744;9.110;2023-04-15T08:53:13;12.30;99.90
2997;DHT22;1508;48.744;9.110;2023-04-15T08:55:59;12.80;99.90
2997;DHT22;1508;48.744;9.110;2023-04-15T08:58:49;13.00;99.90
2997;DHT22;1508;48.744;9.110;2023-04-15T09:01:35;13.20;99.90
2997;DHT22;1508;48.744;9.110;2023-04-15T09:04:21;13.20;99.90
2997;DHT22;1508;48.744;9.110;2023-04-15T09:07:07;13.30;99.90
2997;DHT22;1508;48.744;9.110;2023-04-15T09:09:53;13.70;99.90
2997;DHT22;1508;48.744;9.110;2023-04-15T09:12:39;13.50;99.90
2997;DHT22;1508;48.744;9.110;2023-04-15T09:15:24;13.20;99.90
2997;DHT22;1508;48.744;9.110;2023-04-15T09:18:11;13.00;99.90
2997;DHT22;1508;48.744;9.110;2023-04-15T09:21:09;12.30;99.90
2997;DHT22;1508;48.744;9.110;2023-04-15T09:23:56;12.10;99.90
2997;DHT22;1508;48.744;9.110;2023-04-15T09:26:42;12.20;99.90
2997;DHT22;1508;48.744;9.110;2023-04-15T09:29:28;12.50;99.90
2997;DHT22;1508;48.744;9.110;2023-04-15T09:32:14;12.50;99.90
2997;DHT22;1508;48.744;9.110;2023-04-15T09:35:09;12.60;99.90
2997;DHT22;1508;48.744;9.110;2023-04-15T09:38:02;13.10;99.90
2997;DHT22;1508;48.744;9.110;2023-04-15T09:40:48;13.30;99.90
2997;DHT22;1508;48.744;9.110;2023-04-15T09:43:39;12.60;99.90
2997;DHT22;1508;48.744;9.110;2023-04-15T09:46:43;13.10;99.90
2997;DHT22;1508;48.744;9.110;2023-04-15T09:49:29;13.50;99.90
2997;DHT22;1508;48.744;9.110;2023-04-15T09:52:15;13.60;99.90
2997;DHT22;1508;48.744;9.110;2023-04-15T09:55:01;13.10;99.90
2997;DHT22;1508;48.744;9.110;2023-04-15T09:57:46;13.10;99.90
2997;DHT22;1508;48.744;9.110;2023-04-15T10:00:32;13.10;99.90
2997;DHT22;1508;48.744;9.110;2023-04-15T10:03:28;13.40;99.90
2997;DHT22;1508;48.744;9.110;2023-04-15T10:06:14;13.70;99.90
2997;DHT22;1508;48.744;9.110;2023-04-15T10:08:59;13.50;99.90
2997;DHT22;1508;48.744;9.110;2023-04-15T10:11:46;12.90;99.90
2997;DHT22;1508;48.744;9.110;2023-04-15T10:14:33;13.20;99.90
2997;DHT22;1508;48.744;9.110;2023-04-15T10:17:20;12.90;99.90
2997;DHT22;1508;48.744;9.110;2023-04-15T10:20:06;12.80;99.90
2997;DHT22;1508;48.744;9.110;2023-04-15T10:22:52;12.90;99.90
2997;DHT22;1508;48.744;9.110;2023-04-15T10:25:38;12.40;99.90
2997;DHT22;1508;48.744;9.110;2023-04-15T10:28:25;12.70;99.90
2997;DHT22;1508;48.744;9.110;2023-04-15T10:31:11;12.70;99.90
2997;DHT22;1508;48.744;9.110;2023-04-15T10:33:57;12.70;99.90
2997;DHT22;1508;48.744;9.110;2023-04-15T10:36:43;12.50;99.90
2997;DHT22;1508;48.744;9.110;2023-04-15T10:42:17;12.30;99.90
2997;DHT22;1508;48.744;9.110;2023-04-15T10:45:05;12.70;99.90
2997;DHT22;1508;48.744;9.110;2023-04-15T10:48:00;13.00;99.90
2997;DHT22;1508;48.744;9.110;2023-04-15T10:50:56;13.10;99.90
2997;DHT22;1508;48.744;9.110;2023-04-15T10:53:42;12.80;99.90
2997;DHT22;1508;48.744;9.110;2023-04-15T10:56:28;12.70;99.90
2997;DHT22;1508;48.744;9.110;2023-04-15T10:59:14;12.80;99.90
2997;DHT22;1508;48.744;9.110;2023-04-15T11:02:04;12.60;99.90
2997;DHT22;1508;48.744;9.110;2023-04-15T11:15:56;12.00;99.90
2997;DHT22;1508;48.744;9.110;2023-04-15T11:18:52;12.10;99.90
2997;DHT22;1508;48.744;9.110;2023-04-15T11:21:37;12.30;99.90
2997;DHT22;1508;48.744;9.110;2023-04-15T11:24:23;12.30;99.90
2997;DHT22;1508;48.744;9.110;2023-04-15T11:27:09;12.40;99.90
2997;DHT22;1508;48.744;9.110;2023-04-15T11:30:21;12.70;99.90
2997;DHT22;1508;48.744;9.110;2023-04-15T11:33:08;12.90;99.90
2997;DHT22;1508;48.744;9.110;2023-04-15T11:35:54;13.80;99.90
2997;DHT22;1508;48.744;9.110;2023-04-15T11:38:43;13.80;99.90
2997;DHT22;1508;48.744;9.110;2023-04-15T11:41:29;13.60;99.90
2997;DHT22;1508;48.744;9.110;2023-04-15T11:44:15;13.40;99.90
2997;DHT22;1508;48.744;9.110;2023-04-15T11:47:01;13.50;99.90
2997;DHT22;1508;48.744;9.110;2023-04-15T11:49:47;13.50;99.90
2997;DHT22;1508;48.744;9.110;2023-04-15T11:52:32;12.80;99.90
2997;DHT22;1508;48.744;9.110;2023-04-15T11:55:18;12.80;99.90
2997;DHT22;1508;48.744;9.110;2023-04-15T11:58:05;12.60;99.90
2997;DHT22;1508;48.744;9.110;2023-04-15T12:00:51;12.70;99.90
2997;DHT22;1508;48.744;9.110;2023-04-15T12:03:41;12.70;99.90
2997;DHT22;1508;48.744;9.110;2023-04-15T12:06:36;13.20;99.90
2997;DHT22;1508;48.744;9.110;2023-04-15T12:09:21;12.80;99.90
2997;DHT22;1508;48.744;9.110;2023-04-15T12:12:07;13.10;99.90
2997;DHT22;1508;48.744;9.110;2023-04-15T12:14:55;13.40;99.90
2997;DHT22;1508;48.744;9.110;2023-04-15T12:17:41;13.30;99.90
2997;DHT22;1508;48.744;9.110;2023-04-15T12:20:26;13.40;99.90
2997;DHT22;1508;48.744;9.110;2023-04-15T12:23:12;13.40;99.90
2997;DHT22;1508;48.744;9.110;2023-04-15T12:25:58;13.30;99.90
2997;DHT22;1508;48.744;9.110;2023-04-15T12:28:44;13.30;99.90
2997;DHT22;1508;48.744;9.110;2023-04-15T12:31:29;13.70;99.90
2997;DHT22;1508;48.744;9.110;2023-04-15T12:34:15;13.70;99.90
2997;DHT22;1508;48.744;9.110;2023-04-15T12:37:02;13.50;99.90
2997;DHT22;1508;48.744;9.110;2023-04-15T12:39:48;13.00;99.90
2997;DHT22;1508;48.744;9.110;2023-04-15T12:42:34;12.80;99.90
2997;DHT22;1508;48.744;9.110;2023-04-15T12:45:20;12.50;99.90
2997;DHT22;1508;48.744;9.110;2023-04-15T12:48:06;12.60;99.90
2997;DHT22;1508;48.744;9.110;2023-04-15T12:50:51;12.50;99.90
2997;DHT22;1508;48.744;9.110;2023-04-15T12:53:37;12.50;99.90
2997;DHT22;1508;48.744;9.110;2023-04-15T12:56:23;12.50;99.90
2997;DHT22;1508;48.744;9.110;2023-04-15T12:59:09;12.20;99.90
2997;DHT22;1508;48.744;9.110;2023-04-15T13:01:54;11.80;99.90
2997;DHT22;1508;48.744;9.110;2023-04-15T13:04:40;11.30;99.90
2997;DHT22;1508;48.744;9.110;2023-04-15T13:07:26;11.50;99.90
2997;DHT22;1508;48.744;9.110;2023-04-15T13:10:11;11.80;99.90
2997;DHT22;1508;48.744;9.110;2023-04-15T13:12:57;11.70;99.90
2997;DHT22;1508;48.744;9.110;2023-04-15T13:15:45;11.70;99.90
2997;DHT22;1508;48.744;9.110;2023-04-15T13:18:30;11.60;99.90
2997;DHT22;1508;48.744;9.110;2023-04-15T13:21:16;11.60;99.90
2997;DHT22;1508;48.744;9.110;2023-04-15T13:24:03;11.70;99.90
2997;DHT22;1508;48.744;9.110;2023-04-15T13:26:48;11.60;99.90
2997;DHT22;1508;48.744;9.110;2023-04-15T13:29:34;11.60;99.90
2997;DHT22;1508;48.744;9.110;2023-04-15T13:32:20;11.20;99.90
2997;DHT22;1508;48.744;9.110;2023-04-15T13:35:06;11.10;99.90
2997;DHT22;1508;48.744;9.110;2023-04-15T13:37:52;11.00;99.90
2997;DHT22;1508;48.744;9.110;2023-04-15T13:40:38;11.10;99.90
2997;DHT22;1508;48.744;9.110;2023-04-15T13:43:24;11.20;99.90
2997;DHT22;1508;48.744;9.110;2023-04-15T13:46:09;11.30;99.90
2997;DHT22;1508;48.744;9.110;2023-04-15T13:48:55;11.40;99.90
2997;DHT22;1508;48.744;9.110;2023-04-15T13:51:41;11.70;99.90
2997;DHT22;1508;48.744;9.110;2023-04-15T13:54:27;11.70;99.90
2997;DHT22;1508;48.744;9.110;2023-04-15T13:57:13;11.60;99.90
2997;DHT22;1508;48.744;9.110;2023-04-15T13:59:58;11.70;99.90
2997;DHT22;1508;48.744;9.110;2023-04-15T14:02:44;11.70;99.90
2997;DHT22;1508;48.744;9.110;2023-04-15T14:05:30;11.80;99.90
2997;DHT22;1508;48.744;9.110;2023-04-15T14:08:16;11.70;99.90
2997;DHT22;1508;48.744;9.110;2023-04-15T14:11:02;11.50;99.90
2997;DHT22;1508;48.744;9.110;2023-04-15T14:13:48;11.30;99.90
2997;DHT22;1508;48.744;9.110;2023-04-15T14:16:33;11.30;99.90
2997;DHT22;1508;48.744;9.110;2023-04-15T14:19:19;11.30;99.90
2997;DHT22;1508;48.744;9.110;2023-04-15T14:22:05;11.20;99.90
2997;DHT22;1508;48.744;9.110;2023-04-15T14:24:51;11.40;99.90
2997;DHT22;1508;48.744;9.110;2023-04-15T14:27:36;11.20;99.90
2997;DHT22;1508;48.744;9.110;2023-04-15T14:30:22;11.20;99.90
2997;DHT22;1508;48.744;9.110;2023-04-15T14:33:08;11.10;99.90
2997;DHT22;1508;48.744;9.110;2023-04-15T14:35:54;10.90;99.90
2997;DHT22;1508;48.744;9.110;2023-04-15T14:38:40;10.70;99.90
2997;DHT22;1508;48.744;9.110;2023-04-15T14:41:26;10.80;99.90
2997;DHT22;1508;48.744;9.110;2023-04-15T14:44:11;10.70;99.90
2997;DHT22;1508;48.744;9.110;2023-04-15T14:46:57;10.80;99.90
2997;DHT22;1508;48.744;9.110;2023-04-15T14:49:43;10.80;99.90
2997;DHT22;1508;48.744;9.110;2023-04-15T14:52:31;10.60;99.90
2997;DHT22;1508;48.744;9.110;2023-04-15T14:55:17;10.40;99.90
2997;DHT22;1508;48.744;9.110;2023-04-15T14:58:03;10.40;99.90
2997;DHT22;1508;48.744;9.110;2023-04-15T15:00:49;10.40;99.90
2997;DHT22;1508;48.744;9.110;2023-04-15T15:03:34;10.40;99.90
2997;DHT22;1508;48.744;9.110;2023-04-15T15:06:20;10.30;99.90
2997;DHT22;1508;48.744;9.110;2023-04-15T15:09:06;10.20;99.90
2997;DHT22;1508;48.744;9.110;2023-04-15T15:11:52;10.00;99.90
2997;DHT22;1508;48.744;9.110;2023-04-15T15:14:38;9.70;99.90
2997;DHT22;1508;48.744;9.110;2023-04-15T15:17:23;9.70;99.90
2997;DHT22;1508;48.744;9.110;2023-04-15T15:20:09;9.70;99.90
2997;DHT22;1508;48.744;9.110;2023-04-15T15:22:55;9.70;99.90
2997;DHT22;1508;48.744;9.110;2023-04-15T15:25:41;9.70;99.90
2997;DHT22;1508;48.744;9.110;2023-04-15T15:28:27;9.60;99.90
2997;DHT22;1508;48.744;9.110;2023-04-15T15:31:13;9.60;99.90
2997;DHT22;1508;48.744;9.110;2023-04-15T15:33:59;9.40;99.90
2997;DHT22;1508;48.744;9.110;2023-04-15T15:36:44;9.50;99.90
2997;DHT22;1508;48.744;9.110;2023-04-15T15:39:30;9.50;99.90
2997;DHT22;1508;48.744;9.110;2023-04-15T15:42:17;9.50;99.90
2997;DHT22;1508;48.744;9.110;2023-04-15T15:45:03;9.40;99.90
2997;DHT22;1508;48.744;9.110;2023-04-15T15:47:49;9.40;99.90
2997;DHT22;1508;48.744;9.110;2023-04-15T15:50:34;9.40;99.90
2997;DHT22;1508;48.744;9.110;2023-04-15T15:53:20;9.50;99.90
2997;DHT22;1508;48.744;9.110;2023-04-15T15:56:06;9.50;99.90
2997;DHT22;1508;48.744;9.110;2023-04-15T15:58:52;9.60;99.90
2997;DHT22;1508;48.744;9.110;2023-04-15T16:01:37;9.60;99.90
2997;DHT22;1508;48.744;9.110;2023-04-15T16:04:23;9.70;99.90
2997;DHT22;1508;48.744;9.110;2023-04-15T16:07:09;9.70;99.90
2997;DHT22;1508;48.744;9.110;2023-04-15T16:09:55;9.60;99.90
2997;DHT22;1508;48.744;9.110;2023-04-15T16:12:40;9.80;99.90
2997;DHT22;1508;48.744;9.110;2023-04-15T16:15:26;9.70;99.90
2997;DHT22;1508;48.744;9.110;2023-04-15T16:18:12;9.70;99.90
2997;DHT22;1508;48.744;9.110;2023-04-15T16:20:58;9.70;99.90
2997;DHT22;1508;48.744;9.110;2023-04-15T16:23:43;9.60;99.90
2997;DHT22;1508;48.744;9.110;2023-04-15T16:26:29;9.70;99.90
2997;DHT22;1508;48.744;9.110;2023-04-15T16:29:15;9.60;99.90
2997;DHT22;1508;48.744;9.110;2023-04-15T16:32:00;9.50;99.90
2997;DHT22;1508;48.744;9.110;2023-04-15T16:34:46;9.40;99.90
2997;DHT22;1508;48.744;9.110;2023-04-15T16:37:32;9.20;99.90
2997;DHT22;1508;48.744;9.110;2023-04-15T16:40:18;9.20;99.90
2997;DHT22;1508;48.744;9.110;2023-04-15T16:43:03;8.90;99.90
2997;DHT22;1508;48.744;9.110;2023-04-15T16:45:49;8.80;99.90
2997;DHT22;1508;48.744;9.110;2023-04-15T16:48:35;8.60;99.90
2997;DHT22;1508;48.744;9.110;2023-04-15T16:51:21;8.60;99.90
2997;DHT22;1508;48.744;9.110;2023-04-15T16:54:07;8.70;99.90
2997;DHT22;1508;48.744;9.110;2023-04-15T16:56:52;8.50;99.90
2997;DHT22;1508;48.744;9.110;2023-04-15T16:59:38;8.40;99.90
2997;DHT22;1508;48.744;9.110;2023-04-15T17:02:24;8.30;99.90
2997;DHT22;1508;48.744;9.110;2023-04-15T17:05:09;8.20;99.90
2997;DHT22;1508;48.744;9.110;2023-04-15T17:07:55;8.20;99.90
2997;DHT22;1508;48.744;9.110;2023-04-15T17:10:41;8.00;99.90
2997;DHT22;1508;48.744;9.110;2023-04-15T17:13:27;8.10;99.90
2997;DHT22;1508;48.744;9.110;2023-04-15T17:16:12;8.10;99.90
2997;DHT22;1508;48.744;9.110;2023-04-15T17:18:58;7.90;99.90
2997;DHT22;1508;48.744;9.110;2023-04-15T17:21:44;7.90;99.90
2997;DHT22;1508;48.744;9.110;2023-04-15T17:24:30;7.70;99.90
2997;DHT22;1508;48.744;9.110;2023-04-15T17:27:15;7.60;99.90
2997;DHT22;1508;48.744;9.110;2023-04-15T17:30:01;7.50;99.90
2997;DHT22;1508;48.744;9.110;2023-04-15T17:32:47;7.50;99.90
2997;DHT22;1508;48.744;9.110;2023-04-15T17:35:33;7.60;99.90
2997;DHT22;1508;48.744;9.110;2023-04-15T17:38:18;7.40;99.90
2997;DHT22;1508;48.744;9.110;2023-04-15T17:41:04;7.30;99.90
2997;DHT22;1508;48.744;9.110;2023-04-15T17:43:50;7.30;99.90
2997;DHT22;1508;48.744;9.110;2023-04-15T17:46:35;7.30;99.90
2997;DHT22;1508;48.744;9.110;2023-04-15T17:49:21;7.20;99.90
2997;DHT22;1508;48.744;9.110;2023-04-15T17:52:07;7.10;99.90
2997;DHT22;1508;48.744;9.110;2023-04-15T17:54:53;7.20;99.90
2997;DHT22;1508;48.744;9.110;2023-04-15T17:57:38;7.20;99.90
2997;DHT22;1508;48.744;9.110;2023-04-15T18:00:24;7.20;99.90
2997;DHT22;1508;48.744;9.110;2023-04-15T18:03:10;7.20;99.90
2997;DHT22;1508;48.744;9.110;2023-04-15T18:05:56;7.20;99.90
2997;DHT22;1508;48.744;9.110;2023-04-15T18:08:41;7.10;99.90
2997;DHT22;1508;48.744;9.110;2023-04-15T18:11:27;7.10;99.90
2997;DHT22;1508;48.744;9.110;2023-04-15T18:14:13;7.00;99.90
2997;DHT22;1508;48.744;9.110;2023-04-15T18:16:59;7.00;99.90
2997;DHT22;1508;48.744;9.110;2023-04-15T18:19:44;6.90;99.90
2997;DHT22;1508;48.744;9.110;2023-04-15T18:22:30;6.90;99.90
2997;DHT22;1508;48.744;9.110;2023-04-15T18:25:16;6.90;99.90
2997;DHT22;1508;48.744;9.110;2023-04-15T18:28:02;6.90;99.90
2997;DHT22;1508;48.744;9.110;2023-04-15T18:30:48;6.80;99.90